To NAV CANADA Home Page Login to a new session Search on AWWS site Feedback and Comments Disclaimer Vers la page française équivalente Tips FAQ What's new on the site To the Forecasts and Observations / NOTAM section To "File a Flight Plan" website Publications and other links Update of the User's profile FIC Telephone Numbers My Weather Data Folder Route Weather Data Regional Weather Data Local Weather Data To the Forecasts and Observations / NOTAM section
Request Generated 07/02/2015 at 23:05:51 UTC . Weather information available at that time is displayed.

METAR/TAF

CHURCHILL/MB    (show WxCam)

METAR CYYQ 022300Z 04011KT 15SM FEW070 14/09 A2976 RMK AC1 SLP078
DENSITY ALT 100FT=
METAR CYYQ 022200Z 03012G17KT 15SM FEW070 14/10 A2974 RMK AC2 SLP073
DENSITY ALT 100FT=
METAR CYYQ 022100Z CCA 05010KT 15SM FEW070 SCT210 13/10 A2974 RMK
AC2CC2 WND ESTD SLP071 DENSITY ALT 100FT=
METAR CYYQ 022100Z 09010KT 15SM FEW070 SCT210 13/10 A2974 RMK AC2CC2
WND ESTD SLP071 DENSITY ALT 100FT=

TAF AMD CYYQ 021858Z 0218/0318 27007KT P6SM FEW010 BKN060 TEMPO
0218/0224 BKN010 BKN060 PROB40 0218/0224 VRB15G25KT 4SM TSRA
BKN010 BKN060CB
FM030000 04008KT 6SM BR SCT012 TEMPO 0300/0306 3SM BR SCT008
BKN012
FM030600 06006KT 4SM BR BKN010 TEMPO 0306/0312 1SM BR OVC005
BECMG 0310/0312 12008KT
FM031200 12008KT P6SM FEW010 SCT070
RMK NXT FCST BY 030000Z=
Your time UTC time
Weather data provided by Environment Canada and NAV CANADA